Latest Weather Observations for Sydney Olympic Park

IDN60801

Issued at 4:32 pm EST Tuesday 25 April 2017 (issued every 30 minutes, with the page automatically refreshed every 10 minutes)

About weather observations | Map of weather stations | Latest weather observations for NSW | Other Formats
Station Details ID: 066212 Name: SYDNEY OLYMPIC PARK AWS (ARCHERY CENTRE) Lat: -33.83 Lon: 151.07 Height: 4.0 m
Data from the previous 72 hours. | See also: Recent months at Sydney Olympic Park
Date/Time
EST
Temp
°C
App
Temp
°C
Dew
Point
°C
Rel
Hum
%
Delta-T
°C
Wind Press
QNH
hPa
Press
MSL
hPa
Rain since
9am
mm
Dir  Spd
km/h
Gust
km/h
Spd
kts
Gust
kts
25/04:30pm 20.1 20.0 16.9 82 1.9 N 13 24 7 13 - - 1.0
25/04:00pm 20.3 20.3 17.1 82 1.9 N 13 19 7 10 - - 0.8
25/03:30pm 20.5 20.8 16.9 80 2.2 N 11 19 6 10 - - 0.6
25/03:00pm 20.7 20.5 16.7 78 2.4 NNW 13 20 7 11 - - 0.6
25/02:54pm 20.8 20.6 16.8 78 2.4 NNW 13 22 7 12 - - 0.6
25/02:34pm 22.0 21.3 16.5 71 3.3 NW 15 24 8 13 - - 0.2
25/02:30pm 22.6 21.8 16.2 67 3.9 NW 15 24 8 13 - - 0.2
25/02:00pm 24.3 24.1 15.8 59 5.1 NNW 11 19 6 10 - - 0.0
25/01:30pm 25.0 24.4 15.6 56 5.7 NNW 13 20 7 11 - - 0.0
25/01:00pm 26.0 24.5 15.4 52 6.4 N 17 28 9 15 - - 0.0
25/12:30pm 25.2 23.5 14.6 51 6.3 NNW 17 26 9 14 - - 0.0
25/12:00pm 26.2 24.4 15.6 52 6.4 NNW 19 28 10 15 - - 0.0
25/11:30am 25.4 23.2 14.5 51 6.5 NNW 19 32 10 17 - - 0.0
25/11:00am 25.9 24.7 16.2 55 5.9 NNW 17 24 9 13 - - 0.0
25/10:30am 23.8 24.8 16.3 63 4.6 NNE 6 9 3 5 - - 0.0
25/10:00am 21.5 23.6 16.2 72 3.2 CALM 0 0 0 0 - - 0.0
25/09:30am 21.3 23.4 16.3 73 3.0 CALM 0 0 0 0 - - 0.0
25/09:00am 20.2 22.3 16.2 78 2.4 CALM 0 0 0 0 - - 0.0
25/08:30am 19.6 21.7 16.3 81 2.0 CALM 0 0 0 0 - - 0.0
25/08:00am 18.6 21.2 17.4 93 0.7 CALM 0 0 0 0 - - 0.0
25/07:30am 17.8 20.2 17.0 95 0.5 CALM 0 0 0 0 - - 0.0
25/07:00am 17.1 19.4 16.8 98 0.2 CALM 0 0 0 0 - - 0.0
25/06:30am 16.9 19.1 16.6 98 0.2 CALM 0 0 0 0 - - 0.0
25/06:00am 16.8 19.0 16.5 98 0.2 CALM 0 0 0 0 - - 0.0
25/05:30am 16.8 19.0 16.5 98 0.2 CALM 0 0 0 0 - - 0.0
25/05:00am 16.5 18.5 16.0 97 0.3 CALM 0 0 0 0 - - 0.0
25/04:30am 16.2 18.1 15.7 97 0.3 CALM 0 0 0 0 - - 0.0
25/04:00am 16.3 18.0 15.3 94 0.6 CALM 0 0 0 0 - - 0.0
25/03:30am 16.8 18.7 15.8 94 0.6 CALM 0 0 0 0 - - 0.0
25/03:00am 17.1 19.1 16.0 93 0.6 CALM 0 0 0 0 - - 0.0
25/02:30am 17.4 19.4 16.1 92 0.8 CALM 0 0 0 0 - - 0.0
25/02:00am 17.4 19.4 16.1 92 0.8 CALM 0 0 0 0 - - 0.0
25/01:30am 17.3 19.0 15.1 87 1.3 CALM 0 0 0 0 - - 0.0
25/01:00am 18.0 19.8 15.4 85 1.5 CALM 0 0 0 0 - - 0.0
25/12:30am 18.4 20.2 15.5 83 1.7 CALM 0 6 0 3 - - 0.0
25/12:00am 18.9 20.3 15.4 80 2.1 N 2 7 1 4 - - 0.0
 
Date/Time
EST
Temp
°C
App
Temp
°C
Dew
Point
°C
Rel
Hum
%
Delta-T
°C
Wind Press
QNH
hPa
Press
MSL
hPa
Rain since
9am
mm
Dir  Spd
km/h
Gust
km/h
Spd
kts
Gust
kts
24/11:30pm 18.9 20.9 16.1 84 1.7 CALM 0 6 0 3 - - 0.0
24/11:00pm 19.1 21.2 16.3 84 1.7 CALM 0 2 0 1 - - 0.0
24/10:30pm 19.2 20.9 16.2 83 1.8 W 2 7 1 4 - - 0.0
24/10:00pm 19.8 20.9 16.6 82 1.9 NE 6 15 3 8 - - 0.0
24/09:30pm 19.7 20.8 16.7 83 1.8 NE 6 9 3 5 - - 0.0
24/09:00pm 19.7 21.2 16.7 83 1.8 NE 4 9 2 5 - - 0.0
24/08:30pm 19.6 21.0 16.4 82 1.9 ENE 4 9 2 5 - - 0.0
24/08:00pm 19.7 20.1 16.2 80 2.1 ENE 9 17 5 9 - - 0.0
24/07:30pm 19.9 20.2 16.0 78 2.3 NE 9 17 5 9 - - 0.0
24/07:00pm 19.8 19.8 15.2 75 2.7 NE 9 17 5 9 - - 0.0
24/06:30pm 20.2 20.4 14.8 71 3.2 NE 7 15 4 8 - - 0.0
24/06:00pm 20.7 21.1 15.3 71 3.2 NE 7 13 4 7 - - 0.0
24/05:30pm 21.1 21.6 15.6 71 3.3 NE 7 13 4 7 - - 0.0
24/05:00pm 21.6 21.8 15.7 69 3.5 E 9 17 5 9 - - 0.0
24/04:30pm 22.4 22.2 15.7 66 4.0 E 11 20 6 11 - - 0.0
24/04:00pm 23.0 22.4 15.6 63 4.4 E 13 20 7 11 - - 0.0
24/03:30pm 23.5 22.8 15.5 60 4.8 E 13 20 7 11 - - 0.0
24/03:00pm 24.1 24.5 16.4 62 4.7 E 9 13 5 7 - - 0.0
24/02:30pm 24.0 23.5 16.0 61 4.9 E 13 17 7 9 - - 0.0
24/02:00pm 23.9 23.3 15.7 60 5.0 ESE 13 19 7 10 - - 0.0
24/01:30pm 24.5 24.9 15.4 57 5.5 ENE 7 15 4 8 - - 0.0
24/01:00pm 24.0 25.0 14.4 55 5.7 E 2 7 1 4 - - 0.0
24/12:30pm 24.0 24.4 14.7 56 5.5 E 6 11 3 6 - - 0.0
24/12:00pm 23.8 24.5 14.5 56 5.5 NNW 4 9 2 5 - - 0.0
24/11:30am 23.0 23.6 14.3 58 5.1 ENE 4 9 2 5 - - 0.0
24/11:00am 23.1 24.0 15.2 61 4.7 N 4 9 2 5 - - 0.0
24/10:30am 21.6 22.1 15.0 66 3.9 S 6 9 3 5 - - 0.0
24/10:00am 21.1 21.9 14.7 67 3.8 SE 4 9 2 5 - - 0.0
24/09:30am 20.7 20.9 14.8 69 3.5 WNW 7 11 4 6 - - 0.0
24/09:00am 19.9 20.4 15.1 74 2.8 NW 6 11 3 6 - - 0.0
24/08:30am 18.1 18.5 14.8 81 1.9 WNW 6 9 3 5 - - 0.0
24/08:00am 17.6 18.8 15.9 90 1.0 NW 4 7 2 4 - - 0.0
24/07:30am 16.2 16.5 16.0 99 0.1 NW 9 11 5 6 - - 0.0
24/07:00am 15.1 15.0 14.9 99 0.1 WNW 9 15 5 8 - - 0.0
24/06:30am 14.5 15.9 14.3 99 0.1 CALM 0 0 0 0 - - 0.0
24/06:00am 14.6 16.0 14.4 99 0.1 CALM 0 0 0 0 - - 0.0
24/05:30am 14.7 16.1 14.5 99 0.1 CALM 0 0 0 0 - - 0.0
24/05:00am 14.7 16.1 14.5 99 0.1 CALM 0 0 0 0 - - 0.0
24/04:30am 14.7 16.1 14.5 99 0.1 CALM 0 0 0 0 - - 0.0
24/04:00am 15.1 16.7 14.9 99 0.1 CALM 0 0 0 0 - - 0.0
24/03:30am 15.3 17.0 15.1 99 0.1 CALM 0 0 0 0 - - 0.0
24/03:00am 15.1 16.7 14.9 99 0.1 CALM 0 0 0 0 - - 0.0
24/02:30am 15.4 17.1 15.1 98 0.2 CALM 0 0 0 0 - - 0.0
24/02:00am 15.7 17.4 15.2 97 0.3 CALM 0 0 0 0 - - 0.0
24/01:30am 16.2 18.1 15.7 97 0.3 CALM 0 0 0 0 - - 0.0
24/01:00am 16.5 18.6 16.2 98 0.2 CALM 0 0 0 0 - - 0.0
24/12:30am 16.5 18.2 16.2 98 0.2 W 2 7 1 4 - - 0.0
24/12:00am 16.2 18.2 15.9 98 0.2 CALM 0 0 0 0 - - 0.0
 
Date/Time
EST
Temp
°C
App
Temp
°C
Dew
Point
°C
Rel
Hum
%
Delta-T
°C
Wind Press
QNH
hPa
Press
MSL
hPa
Rain since
9am
mm
Dir  Spd
km/h
Gust
km/h
Spd
kts
Gust
kts
23/11:30pm 16.8 18.9 16.2 96 0.4 CALM 0 0 0 0 - - 0.0
23/11:00pm 17.0 19.1 16.2 95 0.5 CALM 0 0 0 0 - - 0.0
23/10:30pm 17.4 19.6 16.6 95 0.5 CALM 0 0 0 0 - - 0.0
23/10:00pm 18.1 20.5 17.1 94 0.6 CALM 0 0 0 0 - - 0.0
23/09:30pm 18.0 20.6 17.4 96 0.4 CALM 0 0 0 0 - - 0.0
23/09:00pm 18.1 20.5 17.0 93 0.7 CALM 0 0 0 0 - - 0.0
23/08:30pm 18.5 20.9 17.0 91 0.9 CALM 0 0 0 0 - - 0.0
23/08:00pm 18.9 21.3 16.9 88 1.2 CALM 0 0 0 0 - - 0.0
23/07:30pm 19.4 21.7 16.8 85 1.6 CALM 0 0 0 0 - - 0.0
23/07:00pm 20.0 21.3 17.2 84 1.7 SE 6 9 3 5 - - 0.0
23/06:30pm 20.3 21.6 17.1 82 1.9 SE 6 9 3 5 - - 0.0
23/06:00pm 20.6 21.2 16.8 79 2.3 SSE 9 13 5 7 - - 0.0
23/05:30pm 20.8 21.2 16.4 76 2.7 SSE 9 13 5 7 - - 0.0
23/05:00pm 21.6 21.5 15.9 70 3.4 SE 11 17 6 9 - - 0.0
23/04:30pm 22.7 22.2 16.0 66 4.0 ESE 13 19 7 10 - - 0.0
23/04:00pm 23.2 22.4 16.0 64 4.4 SE 15 20 8 11 - - 0.0
23/03:30pm 23.9 23.1 16.2 62 4.7 ESE 15 20 8 11 - - 0.0
23/03:00pm 25.5 25.7 14.6 51 6.5 ENE 7 15 4 8 - - 0.0
23/02:30pm 25.7 26.4 13.5 46 7.2 E 2 9 1 5 - - 0.0
23/02:00pm 25.7 25.9 14.2 49 6.8 ENE 6 9 3 5 - - 0.0
23/01:30pm 25.6 25.6 14.1 49 6.8 E 7 11 4 6 - - 0.0
23/01:00pm 25.1 25.8 14.6 52 6.3 NE 4 7 2 4 - - 0.0
23/12:30pm 24.9 25.6 14.4 52 6.2 W 4 9 2 5 - - 0.0
23/12:00pm 24.7 24.8 15.6 57 5.5 WNW 9 13 5 7 - - 0.0
23/11:30am 24.1 24.4 15.9 60 5.0 WNW 9 15 5 8 - - 0.0
23/11:00am 23.5 24.1 15.3 60 4.9 NW 6 11 3 6 - - 0.0
23/10:30am 22.6 23.2 15.4 64 4.3 WNW 6 9 3 5 - - 0.0
23/10:00am 21.5 22.2 14.4 64 4.2 NNW 4 9 2 5 - - 0.0
23/09:30am 21.1 21.0 15.0 68 3.6 NW 9 11 5 6 - - 0.0
23/09:00am 20.0 20.2 14.8 72 3.0 WNW 7 11 4 6 - - 0.0
23/08:30am 19.1 19.2 15.4 79 2.2 WNW 9 13 5 7 - - 0.0
23/08:00am 17.3 19.1 16.5 95 0.5 W 2 7 1 4 - - 0.0
23/07:30am 16.2 17.1 16.0 99 0.1 WNW 6 7 3 4 - - 0.0
23/07:00am 14.8 15.1 14.6 99 0.1 W 6 7 3 4 - - 0.0
23/06:30am 14.7 16.1 14.5 99 0.1 CALM 0 0 0 0 - - 0.0
23/06:00am 14.8 15.9 14.6 99 0.1 NW 2 6 1 3 - - 0.0
23/05:30am 15.1 15.9 14.9 99 0.1 NW 4 7 2 4 - - 0.0
23/05:00am 15.3 17.0 15.1 99 0.1 CALM 0 7 0 4 - - 0.0
23/04:30am 15.3 17.0 15.1 99 0.1 CALM 0 0 0 0 - - 0.0
23/04:00am 15.3 16.6 15.1 99 0.1 WNW 2 7 1 4 - - 0.0
23/03:30am 15.8 17.6 15.6 99 0.1 CALM 0 0 0 0 - - 0.0
23/03:00am 15.7 17.1 15.5 99 0.1 N 2 6 1 3 - - 0.0
23/02:30am 15.9 17.8 15.7 99 0.1 CALM 0 0 0 0 - - 0.0
23/02:00am 16.0 17.5 15.8 99 0.1 NNW 2 7 1 4 - - 0.0
23/01:30am 15.5 17.2 15.3 99 0.1 CALM 0 0 0 0 - - 0.0
23/01:00am 15.7 17.5 15.4 98 0.2 CALM 0 0 0 0 - - 0.0
23/12:30am 15.9 17.8 15.7 99 0.1 CALM 0 0 0 0 - - 0.0
23/12:00am 16.1 18.0 15.8 98 0.2 CALM 0 0 0 0 - - 0.0
 
Date/Time
EST
Temp
°C
App
Temp
°C
Dew
Point
°C
Rel
Hum
%
Delta-T
°C
Wind Press
QNH
hPa
Press
MSL
hPa
Rain since
9am
mm
Dir  Spd
km/h
Gust
km/h
Spd
kts
Gust
kts
22/11:30pm 16.3 18.2 15.8 97 0.3 CALM 0 0 0 0 - - 0.0
22/11:00pm 16.5 18.4 15.7 95 0.5 CALM 0 0 0 0 - - 0.0
22/10:30pm 16.9 18.9 15.9 94 0.6 CALM 0 0 0 0 - - 0.0
22/10:00pm 17.1 19.1 16.0 93 0.6 CALM 0 0 0 0 - - 0.0
22/09:30pm 17.4 19.4 15.9 91 0.9 CALM 0 0 0 0 - - 0.0
22/09:00pm 17.8 19.6 15.6 87 1.3 CALM 0 0 0 0 - - 0.0
22/08:30pm 18.4 20.3 15.8 85 1.5 CALM 0 0 0 0 - - 0.0
22/08:00pm 19.5 21.2 16.2 81 2.0 NNE 2 6 1 3 - - 0.0
22/07:30pm 19.8 21.8 16.1 79 2.2 CALM 0 0 0 0 - - 0.0
22/07:00pm 20.2 22.2 16.0 77 2.5 CALM 0 0 0 0 - - 0.0
22/06:30pm 20.5 21.2 16.1 76 2.6 SE 7 9 4 5 - - 0.0
22/06:00pm 21.2 22.5 16.2 73 3.0 ENE 4 9 2 5 - - 0.0
22/05:30pm 21.5 22.1 15.8 70 3.4 NE 7 15 4 8 - - 0.0
22/05:00pm 22.0 22.9 16.1 69 3.6 NE 6 11 3 6 - - 0.0

Other Formats:

Comma delimited format used in spreadsheet applications
http://www.bom.gov.au/fwo/IDN60801/IDN60801.95765.axf

JavaScript Object Notation format (JSON) in row-major order
http://www.bom.gov.au/fwo/IDN60801/IDN60801.95765.json